Time;durP1;ratioP1;P1;durP2;ratioP2;P2;SDS_P1;SDS_P2;PMS_P1;PMS_P2;Temp;Humidity;BMP_temperature;BMP_pressure;BME280_temperature;BME280_humidity;BME280_pressure;Samples;Min_cycle;Max_cycle;Signal;HPM_P1;HPM_P2
2024/01/20 00:01:05;;;;;;;36.28;12.05;;;;;;;-1.93;100.00;102607.75;5034242;28;20025;-80
2024/01/20 00:03:31;;;;;;;88.80;44.13;;;;;;;-1.97;100.00;102603.41;5043878;28;20024;-80
2024/01/20 00:05:56;;;;;;;78.15;43.38;;;;;;;-1.98;100.00;102607.72;5056507;28;20552;-80
2024/01/20 00:08:21;;;;;;;75.90;42.60;;;;;;;-1.95;100.00;102612.88;5034285;28;20024;-80
2024/01/20 00:10:50;;;;;;;79.03;42.35;;;;;;;-1.95;100.00;102612.88;5034712;28;20028;-79
2024/01/20 00:13:15;;;;;;;84.95;44.13;;;;;;;-1.95;100.00;102607.72;5033290;28;20021;-79
2024/01/20 00:15:40;;;;;;;79.78;43.25;;;;;;;-1.94;100.00;102612.03;5052321;28;20516;-79
2024/01/20 00:18:06;;;;;;;77.18;43.13;;;;;;;-1.93;100.00;102613.75;5049785;28;20297;-79
2024/01/20 00:20:31;;;;;;;79.43;41.67;;;;;;;-1.91;100.00;102601.72;5035532;28;20473;-80
2024/01/20 00:22:57;;;;;;;81.07;42.55;;;;;;;-1.88;100.00;102623.25;5051269;28;20469;-79
2024/01/20 00:25:22;;;;;;;77.43;40.90;;;;;;;-1.87;100.00;102614.66;5033378;28;20528;-79
2024/01/20 00:27:51;;;;;;;74.75;41.95;;;;;;;-1.87;100.00;102627.53;5050977;28;20113;-80
2024/01/20 00:30:16;;;;;;;78.93;42.03;;;;;;;-1.85;100.00;102615.50;5049345;28;20025;-78
2024/01/20 00:32:42;;;;;;;77.95;41.60;;;;;;;-1.86;100.00;102606.91;5026828;28;20048;-79
2024/01/20 00:35:07;;;;;;;76.50;42.58;;;;;;;-1.86;100.00;102603.47;5031246;28;20033;-79
2024/01/20 00:37:34;;;;;;;77.35;41.85;;;;;;;-1.86;100.00;102611.22;5032754;28;20091;-79
2024/01/20 00:40:00;;;;;;;74.03;40.95;;;;;;;-1.87;100.00;102602.59;5048423;28;20021;-79
2024/01/20 00:42:25;;;;;;;73.53;40.08;;;;;;;-1.86;100.00;102600.91;5050857;28;20036;-79
2024/01/20 00:44:51;;;;;;;76.28;39.90;;;;;;;-1.88;100.00;102600.88;5050156;28;20067;-79
2024/01/20 00:47:16;;;;;;;78.03;40.58;;;;;;;-1.85;100.00;102607.78;5032133;28;20063;-79
2024/01/20 00:49:42;;;;;;;71.72;40.10;;;;;;;-1.86;100.00;102600.91;5033207;28;20041;-79
2024/01/20 00:52:07;;;;;;;74.85;40.08;;;;;;;-1.84;100.00;102609.50;5046713;28;20871;-79
2024/01/20 00:54:33;;;;;;;76.03;39.92;;;;;;;-1.84;100.00;102607.78;5049201;28;20051;-79
2024/01/20 00:56:58;;;;;;;77.00;41.15;;;;;;;-1.84;100.00;102606.94;5031023;28;20163;-78
2024/01/20 00:59:24;;;;;;;72.95;40.47;;;;;;;-1.84;100.00;102607.78;5049819;28;20025;-78
2024/01/20 01:01:49;;;;;;;75.65;39.92;;;;;;;-1.84;100.00;102609.50;5032824;28;20485;-79
2024/01/20 01:04:14;;;;;;;70.32;38.60;;;;;;;-1.82;100.00;102607.78;5050032;28;20029;-78
2024/01/20 01:06:40;;;;;;;69.43;38.03;;;;;;;-1.81;100.00;102601.78;5033339;28;20028;-78
2024/01/20 01:09:05;;;;;;;75.35;39.15;;;;;;;-1.83;100.00;102612.09;5032343;28;20025;-78
2024/01/20 01:11:31;;;;;;;70.88;38.72;;;;;;;-1.84;100.00;102600.03;5043869;28;20030;-79
2024/01/20 01:13:57;;;;;;;71.63;39.45;;;;;;;-1.83;100.00;102608.66;5030786;28;20025;-79
2024/01/20 01:16:22;;;;;;;70.78;38.92;;;;;;;-1.86;100.00;102595.72;5032637;28;20012;-79
2024/01/20 01:18:48;;;;;;;73.75;39.03;;;;;;;-1.86;100.00;102606.91;5033348;28;20473;-79
2024/01/20 01:21:14;;;;;;;71.45;38.90;;;;;;;-1.86;100.00;102606.06;5050445;28;20033;-79
2024/01/20 01:23:40;;;;;;;68.28;39.22;;;;;;;-1.86;100.00;102604.34;5032979;28;20485;-79
2024/01/20 01:26:05;;;;;;;66.72;38.13;;;;;;;-1.86;100.00;102606.06;5031447;28;20408;-80
2024/01/20 01:28:31;;;;;;;66.75;37.60;;;;;;;-1.87;100.00;102609.50;5048804;28;20095;-79
2024/01/20 01:30:56;;;;;;;62.25;36.58;;;;;;;-1.86;100.00;102612.06;5048904;28;20033;-79
2024/01/20 01:33:21;;;;;;;69.00;37.35;;;;;;;-1.91;100.00;102614.63;5048821;28;20025;-79
2024/01/20 01:35:48;;;;;;;65.63;36.80;;;;;;;-1.88;100.00;102618.06;5048262;28;20131;-79
2024/01/20 01:38:14;;;;;;;63.22;36.13;;;;;;;-1.90;100.00;102616.34;5026044;28;20017;-80
2024/01/20 01:40:39;;;;;;;67.93;37.30;;;;;;;-1.89;100.00;102617.22;5027216;28;20036;-80
2024/01/20 01:43:05;;;;;;;66.55;37.50;;;;;;;-1.91;100.00;102619.78;5046032;28;20096;-80
2024/01/20 01:45:32;;;;;;;71.68;39.03;;;;;;;-1.90;100.00;102624.09;5047337;28;20124;-80
2024/01/20 01:47:58;;;;;;;67.53;38.00;;;;;;;-1.92;100.00;102618.06;5048100;28;20530;-79
2024/01/20 01:50:24;;;;;;;65.22;37.72;;;;;;;-1.88;100.00;102625.81;5029403;28;20040;-80
2024/01/20 01:52:50;;;;;;;66.13;37.95;;;;;;;-1.90;100.00;102634.41;5029310;28;20032;-79
2024/01/20 01:55:16;;;;;;;66.53;37.17;;;;;;;-1.91;100.00;102624.94;5029211;28;20052;-79
2024/01/20 01:57:43;;;;;;;66.35;38.28;;;;;;;-1.91;100.00;102634.41;5028405;28;20440;-79
2024/01/20 02:00:09;;;;;;;67.35;38.30;;;;;;;-1.92;100.00;102636.13;5022095;28;20263;-79
2024/01/20 02:02:34;;;;;;;69.70;38.22;;;;;;;-1.94;100.00;102630.09;5028589;28;20083;-79
2024/01/20 02:05:00;;;;;;;68.40;37.72;;;;;;;-1.94;100.00;102645.56;5027447;28;20033;-79
2024/01/20 02:07:29;;;;;;;33.33;10.70;;;;;;;-1.85;100.00;102654.22;5044612;28;20025;-79
2024/01/20 02:09:55;;;;;;;65.78;36.40;;;;;;;-1.91;100.00;102647.31;5046810;28;20373;-80
2024/01/20 02:12:21;;;;;;;68.93;39.17;;;;;;;-1.91;100.00;102655.03;5031162;28;20032;-80
2024/01/20 02:14:51;;;;;;;64.82;37.58;;;;;;;-1.90;100.00;102642.16;5049700;28;20028;-79
2024/01/20 02:17:16;;;;;;;67.25;39.20;;;;;;;-1.93;100.00;102649.88;5031750;28;20031;-79
2024/01/20 02:19:42;;;;;;;64.25;38.03;;;;;;;-1.93;100.00;102646.44;5020693;28;20112;-79
2024/01/20 02:22:15;;;;;;;65.97;38.28;;;;;;;-1.92;100.00;102653.31;5029701;28;20072;-79
2024/01/20 02:24:47;;;;;;;69.07;39.28;;;;;;;-1.93;100.00;102646.44;5027600;28;20087;-79
2024/01/20 02:27:13;;;;;;;68.25;39.00;;;;;;;-1.93;100.00;102652.44;5028500;28;20108;-79
2024/01/20 02:29:39;;;;;;;65.47;38.83;;;;;;;-1.93;100.00;102660.19;5012879;28;20025;-79
2024/01/20 02:32:05;;;;;;;66.60;37.95;;;;;;;-1.93;100.00;102665.34;5046617;28;20057;-79
2024/01/20 02:34:31;;;;;;;33.35;11.85;;;;;;;-1.85;100.00;102660.22;5048443;28;20025;-80
2024/01/20 02:36:57;;;;;;;66.32;38.10;;;;;;;-1.91;100.00;102665.34;5049383;28;20024;-79
2024/01/20 02:39:22;;;;;;;65.68;35.53;;;;;;;-1.91;100.00;102663.63;5042831;28;20025;-81
2024/01/20 02:41:48;;;;;;;64.32;37.90;;;;;;;-1.88;100.00;102667.09;5028477;28;21042;-79
2024/01/20 02:44:13;;;;;;;68.20;38.22;;;;;;;-1.88;100.00;102661.94;5031255;28;20025;-79
2024/01/20 02:46:39;;;;;;;34.15;12.02;;;;;;;-1.81;100.00;102661.09;5042463;28;20438;-79
2024/01/20 02:49:05;;;;;;;65.03;37.75;;;;;;;-1.90;100.00;102657.63;5047319;28;20064;-79
2024/01/20 02:51:30;;;;;;;64.15;38.17;;;;;;;-1.90;100.00;102657.63;4998483;28;20042;-79
2024/01/20 02:53:57;;;;;;;61.35;36.92;;;;;;;-1.91;100.00;102650.75;5000150;28;20088;-80
2024/01/20 02:56:24;;;;;;;65.47;36.40;;;;;;;-1.92;100.00;102654.16;5008295;28;20030;-79
2024/01/20 02:58:49;;;;;;;62.80;36.03;;;;;;;-1.94;100.00;102658.47;5007171;28;20038;-79
2024/01/20 03:01:15;;;;;;;65.03;36.53;;;;;;;-1.96;100.00;102647.28;5007458;28;20419;-79
2024/01/20 03:03:41;;;;;;;61.75;35.85;;;;;;;-1.94;100.00;102653.31;5000732;28;20041;-79
2024/01/20 03:06:07;;;;;;;61.90;36.33;;;;;;;-1.94;100.00;102661.03;5015415;28;20501;-80
2024/01/20 03:08:33;;;;;;;61.92;37.10;;;;;;;-1.93;100.00;102673.09;5007427;28;20124;-79
2024/01/20 03:10:58;;;;;;;61.58;36.03;;;;;;;-1.94;100.00;102666.19;5008487;28;20042;-79
2024/01/20 03:13:23;;;;;;;61.47;36.83;;;;;;;-1.90;100.00;102669.66;5008652;28;20371;-79
2024/01/20 03:15:49;;;;;;;60.35;35.97;;;;;;;-1.91;100.00;102679.13;5006091;28;20121;-79
2024/01/20 03:18:14;;;;;;;65.00;36.90;;;;;;;-1.90;100.00;102683.41;5009111;28;20478;-80
2024/01/20 03:20:40;;;;;;;62.47;37.38;;;;;;;-1.91;100.00;102675.66;5007304;28;20026;-79
2024/01/20 03:23:06;;;;;;;61.05;36.97;;;;;;;-1.88;100.00;102680.84;5025173;28;20021;-80
2024/01/20 03:25:31;;;;;;;57.83;35.88;;;;;;;-1.88;100.00;102685.16;5011433;28;20037;-79
2024/01/20 03:27:57;;;;;;;62.85;36.92;;;;;;;-1.88;100.00;102679.97;5012623;28;20022;-79
2024/01/20 03:30:23;;;;;;;65.18;37.90;;;;;;;-1.87;100.00;102684.28;5011825;28;20075;-79
2024/01/20 03:32:49;;;;;;;61.38;37.25;;;;;;;-1.86;100.00;102688.59;5025433;28;20498;-79
2024/01/20 03:35:16;;;;;;;64.13;36.38;;;;;;;-1.85;100.00;102686.03;5010398;28;20013;-79
2024/01/20 03:37:42;;;;;;;60.28;37.30;;;;;;;-1.82;100.00;102682.59;5012068;28;20026;-79
2024/01/20 03:40:09;;;;;;;61.75;36.65;;;;;;;-1.83;100.00;102678.28;5007240;28;20240;-79
2024/01/20 03:42:34;;;;;;;62.75;36.88;;;;;;;-1.83;100.00;102673.13;5011009;28;20026;-79
2024/01/20 03:44:59;;;;;;;60.90;36.92;;;;;;;-1.85;100.00;102690.31;5009252;28;20038;-79
2024/01/20 03:47:25;;;;;;;58.05;36.25;;;;;;;-1.81;100.00;102690.34;5010930;28;20034;-79
2024/01/20 03:49:54;;;;;;;57.38;34.88;;;;;;;-1.83;100.00;102693.78;5011295;28;20078;-79
2024/01/20 03:52:20;;;;;;;57.28;35.03;;;;;;;-1.83;100.00;102686.91;5019960;28;20483;-79
2024/01/20 03:54:46;;;;;;;61.40;35.83;;;;;;;-1.83;100.00;102683.47;5025209;28;20033;-79
2024/01/20 03:57:12;;;;;;;59.67;36.58;;;;;;;-1.83;100.00;102683.47;5021525;28;20036;-79
2024/01/20 03:59:37;;;;;;;61.70;35.13;;;;;;;-1.82;100.00;102669.69;5045910;28;20131;-79
2024/01/20 04:02:02;;;;;;;57.70;35.60;;;;;;;-1.83;100.00;102683.47;5026863;28;20032;-79
2024/01/20 04:04:28;;;;;;;64.00;37.65;;;;;;;-1.81;100.00;102681.75;5030992;28;20536;-79
2024/01/20 04:06:53;;;;;;;57.17;34.58;;;;;;;-1.83;100.00;102686.03;5030790;28;20056;-80
2024/01/20 04:09:19;;;;;;;62.28;36.85;;;;;;;-1.83;100.00;102691.19;5024963;28;20025;-80
2024/01/20 04:11:46;;;;;;;59.45;36.15;;;;;;;-1.84;100.00;102677.44;5021042;28;20030;-79
2024/01/20 04:14:12;;;;;;;58.80;34.58;;;;;;;-1.82;100.00;102680.88;5028512;28;20034;-80
2024/01/20 04:16:38;;;;;;;61.10;36.05;;;;;;;-1.84;100.00;102680.00;5035914;28;20025;-79
2024/01/20 04:19:03;;;;;;;57.60;35.97;;;;;;;-1.83;100.00;102688.63;5011488;28;20036;-79
2024/01/20 04:21:28;;;;;;;58.33;35.53;;;;;;;-1.85;100.00;102685.16;5012383;28;20088;-79
2024/01/20 04:23:54;;;;;;;60.97;35.60;;;;;;;-1.86;100.00;102691.19;5012125;28;20057;-79
2024/01/20 04:26:19;;;;;;;56.33;35.28;;;;;;;-1.85;100.00;102698.06;5011925;28;20033;-79
2024/01/20 04:28:45;;;;;;;57.85;34.95;;;;;;;-1.87;100.00;102704.94;5012555;28;20026;-78
2024/01/20 04:31:10;;;;;;;58.35;34.17;;;;;;;-1.84;100.00;102704.94;5011510;28;20049;-80
2024/01/20 04:33:36;;;;;;;57.15;34.35;;;;;;;-1.86;100.00;102709.22;5011098;28;20028;-79
2024/01/20 04:36:02;;;;;;;55.97;34.22;;;;;;;-1.86;100.00;102715.25;4991028;28;20085;-79
2024/01/20 04:38:28;;;;;;;61.38;34.53;;;;;;;-1.87;100.00;102710.94;4991191;28;20053;-80
2024/01/20 04:40:54;;;;;;;61.00;36.67;;;;;;;-1.87;100.00;102713.53;5011504;28;20319;-79
2024/01/20 04:43:19;;;;;;;56.22;33.90;;;;;;;-1.86;100.00;102720.41;5011107;28;20026;-79
2024/01/20 04:45:45;;;;;;;55.85;34.83;;;;;;;-1.85;100.00;102716.97;5022363;28;20033;-79
2024/01/20 04:48:10;;;;;;;56.50;34.42;;;;;;;-1.86;100.00;102715.25;5015117;28;20513;-79
2024/01/20 04:50:36;;;;;;;57.88;35.53;;;;;;;-1.84;100.00;102723.00;5016552;28;20051;-79
2024/01/20 04:53:02;;;;;;;55.08;33.42;;;;;;;-1.85;100.00;102732.47;5010186;28;20390;-79
2024/01/20 04:55:28;;;;;;;60.97;35.17;;;;;;;-1.84;100.00;102723.00;5010535;28;20025;-79
2024/01/20 04:57:53;;;;;;;53.45;33.72;;;;;;;-1.87;100.00;102725.56;5008129;28;20034;-79
2024/01/20 05:00:19;;;;;;;55.63;33.55;;;;;;;-1.87;100.00;102718.69;5009447;28;20061;-79
2024/01/20 05:02:44;;;;;;;54.75;33.45;;;;;;;-1.87;100.00;102712.66;5011437;28;20041;-79
2024/01/20 05:05:10;;;;;;;53.95;33.60;;;;;;;-1.88;100.00;102718.69;5024974;28;20033;-80
2024/01/20 05:07:35;;;;;;;55.33;34.38;;;;;;;-1.87;100.00;102717.81;5010524;28;20036;-79
2024/01/20 05:10:01;;;;;;;54.85;34.08;;;;;;;-1.89;100.00;102717.81;5007734;28;20430;-79
2024/01/20 05:12:28;;;;;;;54.97;33.85;;;;;;;-1.90;100.00;102722.09;5023964;28;20441;-80
2024/01/20 05:14:54;;;;;;;55.90;33.67;;;;;;;-1.91;100.00;102717.81;5008668;28;20397;-80
2024/01/20 05:17:20;;;;;;;62.10;35.10;;;;;;;-1.92;100.00;102726.38;5025853;28;20029;-80
2024/01/20 05:19:45;;;;;;;55.92;33.92;;;;;;;-1.92;100.00;102726.38;5009401;28;20030;-80
2024/01/20 05:22:10;;;;;;;27.52;10.65;;;;;;;-1.85;100.00;102732.47;5008579;28;20277;-80
2024/01/20 05:24:36;;;;;;;57.97;35.03;;;;;;;-1.90;100.00;102734.13;5010411;28;20022;-80
2024/01/20 05:27:01;;;;;;;56.72;33.90;;;;;;;-1.93;100.00;102722.09;5008282;28;20034;-80
2024/01/20 05:29:27;;;;;;;57.55;35.58;;;;;;;-1.93;100.00;102723.81;5008956;28;20030;-81
2024/01/20 05:31:52;;;;;;;52.55;33.40;;;;;;;-1.93;100.00;102724.66;5007709;28;20068;-80
2024/01/20 05:34:17;;;;;;;53.33;34.25;;;;;;;-1.95;100.00;102728.94;5025053;28;20030;-80
2024/01/20 05:36:43;;;;;;;54.80;33.45;;;;;;;-1.94;100.00;102732.41;5024872;28;20033;-80
2024/01/20 05:39:08;;;;;;;29.30;9.95;;;;;;;-1.89;100.00;102735.88;5024511;28;20064;-80
2024/01/20 05:41:34;;;;;;;25.13;8.73;;;;;;;-1.89;100.00;102738.44;5010619;28;20056;-80
2024/01/20 05:44:02;;;;;;;51.13;33.05;;;;;;;-1.95;100.00;102736.69;5022123;28;20030;-80
2024/01/20 05:46:27;;;;;;;50.28;32.38;;;;;;;-1.98;100.00;102735.81;5008872;28;20112;-80
2024/01/20 05:48:53;;;;;;;52.88;34.30;;;;;;;-1.98;100.00;102731.50;5008809;28;20446;-80
2024/01/20 05:51:18;;;;;;;49.17;32.33;;;;;;;-2.01;100.00;102744.34;5038078;28;20443;-80
2024/01/20 05:53:44;;;;;;;50.08;31.92;;;;;;;-2.01;100.00;102731.44;5008706;28;20096;-80
2024/01/20 05:56:09;;;;;;;26.15;9.13;;;;;;;-1.95;100.00;102739.28;5007789;28;20014;-80
2024/01/20 05:58:35;;;;;;;47.60;31.90;;;;;;;-2.01;100.00;102744.34;5010035;28;20548;-80
2024/01/20 06:01:00;;;;;;;25.20;9.10;;;;;;;-1.95;100.00;102747.00;5006219;28;20051;-80
2024/01/20 06:03:27;;;;;;;50.75;31.88;;;;;;;-2.02;100.00;102744.34;5006851;28;20029;-80
2024/01/20 06:05:52;;;;;;;49.00;30.65;;;;;;;-2.03;100.00;102753.78;5024043;28;20030;-80
2024/01/20 06:08:18;;;;;;;48.28;31.92;;;;;;;-2.03;100.00;102753.78;5009484;28;20033;-80
2024/01/20 06:10:43;;;;;;;49.22;32.55;;;;;;;-1.99;100.00;102759.88;5007411;28;20063;-80
2024/01/20 06:13:09;;;;;;;51.38;33.63;;;;;;;-1.99;100.00;102754.72;5007592;28;20029;-80
2024/01/20 06:15:35;;;;;;;53.17;32.05;;;;;;;-1.99;100.00;102754.72;5010067;28;20045;-80
2024/01/20 06:18:00;;;;;;;50.17;33.05;;;;;;;-2.00;100.00;102764.16;5024275;28;20041;-80
2024/01/20 06:20:26;;;;;;;47.35;31.55;;;;;;;-2.00;100.00;102764.16;5007308;28;20022;-80
2024/01/20 06:22:51;;;;;;;47.88;32.50;;;;;;;-2.01;100.00;102762.41;5021872;28;20439;-80
2024/01/20 06:25:18;;;;;;;48.92;32.47;;;;;;;-2.00;100.00;102761.59;4990381;28;20364;-80
2024/01/20 06:27:44;;;;;;;26.50;10.05;;;;;;;-1.94;100.00;102764.22;4991076;28;20018;-80
2024/01/20 06:30:10;;;;;;;48.72;32.67;;;;;;;-2.02;100.00;102760.66;4989244;28;20352;-81
2024/01/20 06:32:35;;;;;;;47.50;31.88;;;;;;;-2.02;100.00;102768.41;4990393;28;20080;-80
2024/01/20 06:35:01;;;;;;;45.60;31.25;;;;;;;-2.02;100.00;102768.41;5010128;28;20035;-80
2024/01/20 06:37:26;;;;;;;46.38;30.77;;;;;;;-2.06;100.00;102764.06;5007438;28;20034;-80
2024/01/20 06:39:52;;;;;;;44.35;30.25;;;;;;;-2.05;100.00;102775.25;5000390;28;20049;-80
2024/01/20 06:42:17;;;;;;;46.30;30.77;;;;;;;-2.03;100.00;102784.72;4989344;28;20040;-80
2024/01/20 06:44:43;;;;;;;47.20;31.00;;;;;;;-2.06;100.00;102778.69;4995905;28;20033;-80
2024/01/20 06:47:09;;;;;;;47.67;30.95;;;;;;;-2.06;100.00;102782.13;5023451;28;20034;-80
2024/01/20 06:49:39;;;;;;;46.85;31.20;;;;;;;-2.04;100.00;102787.31;5016233;28;20053;-80
2024/01/20 06:52:04;;;;;;;46.20;31.50;;;;;;;-2.03;100.00;102787.31;5047707;28;20672;-81
2024/01/20 06:54:29;;;;;;;47.00;31.27;;;;;;;-2.04;100.00;102793.31;5031254;28;20136;-80
2024/01/20 06:56:55;;;;;;;46.38;31.23;;;;;;;-2.05;100.00;102796.75;5048073;28;20028;-80
2024/01/20 06:59:20;;;;;;;44.25;31.52;;;;;;;-2.04;100.00;102793.31;5053096;28;20024;-80
2024/01/20 07:01:46;;;;;;;47.20;30.90;;;;;;;-2.05;100.00;102794.16;5048482;28;20033;-80
2024/01/20 07:04:11;;;;;;;45.40;31.88;;;;;;;-2.08;100.00;102801.88;5051652;28;20036;-80
2024/01/20 07:06:37;;;;;;;44.83;32.05;;;;;;;-2.06;100.00;102801.91;5033813;28;20025;-80
2024/01/20 07:09:05;;;;;;;26.17;9.48;;;;;;;-1.99;100.00;102804.56;5052544;28;20025;-80
2024/01/20 07:11:31;;;;;;;47.38;31.02;;;;;;;-2.06;100.00;102795.03;5026514;28;20029;-80
2024/01/20 07:13:56;;;;;;;28.50;9.63;;;;;;;-1.99;100.00;102807.16;5023516;28;20033;-80
2024/01/20 07:16:22;;;;;;;25.05;10.65;;;;;;;-1.98;100.00;102806.31;5031774;28;20041;-81
2024/01/20 07:18:48;;;;;;;26.38;9.00;;;;;;;-1.98;100.00;102805.44;5029643;28;20028;-80
2024/01/20 07:21:13;;;;;;;45.67;31.35;;;;;;;-2.06;100.00;102797.59;5020362;28;20037;-80
2024/01/20 07:23:39;;;;;;;44.38;31.50;;;;;;;-2.08;100.00;102801.88;5052299;28;20029;-80
2024/01/20 07:26:05;;;;;;;45.92;31.75;;;;;;;-2.08;100.00;102801.03;5050224;28;20032;-80
2024/01/20 07:28:30;;;;;;;45.00;31.90;;;;;;;-2.08;100.00;102806.19;5049387;28;20017;-81
2024/01/20 07:30:55;;;;;;;47.60;33.20;;;;;;;-2.08;100.00;102806.19;5049934;28;20029;-80
2024/01/20 07:33:21;;;;;;;46.53;33.08;;;;;;;-2.08;100.00;102799.31;5031348;28;20136;-80
2024/01/20 07:35:47;;;;;;;48.75;33.03;;;;;;;-2.09;100.00;102802.72;5050996;28;20131;-80
2024/01/20 07:38:12;;;;;;;47.58;33.03;;;;;;;-2.08;100.00;102807.03;5033991;28;20067;-80
2024/01/20 07:40:39;;;;;;;46.22;32.08;;;;;;;-2.08;100.00;102804.47;5041869;28;20044;-80
2024/01/20 07:43:05;;;;;;;49.05;33.60;;;;;;;-2.07;100.00;102813.91;5030091;28;20033;-81
2024/01/20 07:45:31;;;;;;;48.60;33.88;;;;;;;-2.11;100.00;102811.31;5041359;28;20029;-80
2024/01/20 07:47:59;;;;;;;47.75;32.80;;;;;;;-2.12;100.00;102805.28;5031111;28;20438;-80
2024/01/20 07:50:25;;;;;;;45.35;32.15;;;;;;;-2.11;100.00;102811.31;5052091;28;20060;-80
2024/01/20 07:52:50;;;;;;;46.50;32.75;;;;;;;-2.11;100.00;102812.16;5034738;28;20021;-80
2024/01/20 07:55:16;;;;;;;48.15;32.97;;;;;;;-2.14;100.00;102812.13;5034039;28;20056;-80
2024/01/20 07:57:41;;;;;;;48.03;32.92;;;;;;;-2.16;100.00;102819.00;5051424;28;20033;-80
2024/01/20 08:00:09;;;;;;;48.95;34.45;;;;;;;-2.15;100.00;102818.16;5029966;28;20033;-80
2024/01/20 08:02:35;;;;;;;49.85;33.70;;;;;;;-2.12;100.00;102819.88;5042615;28;20036;-80
2024/01/20 08:05:01;;;;;;;48.47;34.45;;;;;;;-2.12;100.00;102823.34;5051521;28;20124;-80
2024/01/20 08:07:26;;;;;;;49.55;33.67;;;;;;;-2.12;100.00;102823.34;5050400;28;20108;-80
2024/01/20 08:09:51;;;;;;;46.95;33.88;;;;;;;-2.10;100.00;102821.63;5048992;28;20500;-80
2024/01/20 08:12:17;;;;;;;49.08;34.58;;;;;;;-2.09;100.00;102820.78;5033027;28;20021;-80
2024/01/20 08:14:43;;;;;;;49.22;34.33;;;;;;;-2.08;100.00;102817.34;5052528;28;20040;-80
2024/01/20 08:17:08;;;;;;;51.13;34.83;;;;;;;-2.10;100.00;102826.78;5032486;28;20035;-80
2024/01/20 08:19:34;;;;;;;53.00;34.58;;;;;;;-2.09;100.00;102825.06;5034300;28;20024;-80
2024/01/20 08:21:59;;;;;;;24.88;10.55;;;;;;;-2.01;100.00;102826.00;5044180;28;20025;-80
2024/01/20 08:24:25;;;;;;;52.15;35.10;;;;;;;-2.08;100.00;102827.66;5032631;28;20469;-80
2024/01/20 08:26:50;;;;;;;51.05;35.88;;;;;;;-2.07;100.00;102833.69;5033810;28;20021;-80
2024/01/20 08:29:17;;;;;;;35.50;10.63;;;;;;;-2.00;100.00;102836.38;5035092;28;20025;-80
2024/01/20 08:31:42;;;;;;;27.33;9.77;;;;;;;-1.98;100.00;102839.81;5032905;28;20043;-80
2024/01/20 08:34:08;;;;;;;23.52;9.18;;;;;;;-2.00;100.00;102836.38;5030429;28;20033;-80
2024/01/20 08:36:33;;;;;;;27.60;9.20;;;;;;;-1.98;100.00;102839.81;5049006;28;20074;-81
2024/01/20 08:38:58;;;;;;;50.85;34.22;;;;;;;-2.00;100.00;102844.09;5039378;28;20068;-80
2024/01/20 08:41:24;;;;;;;52.40;34.63;;;;;;;-1.98;100.00;102839.81;5050385;28;20048;-81
2024/01/20 08:43:49;;;;;;;46.63;33.03;;;;;;;-1.99;100.00;102845.84;5051352;28;20029;-81
2024/01/20 08:46:14;;;;;;;32.38;11.80;;;;;;;-1.92;100.00;102854.50;5022106;28;20017;-81
2024/01/20 08:48:40;;;;;;;31.60;9.95;;;;;;;-1.88;100.00;102856.25;5051359;28;20036;-81
2024/01/20 08:51:05;;;;;;;48.10;33.60;;;;;;;-1.92;100.00;102852.78;5048491;28;20045;-81
2024/01/20 08:53:33;;;;;;;46.63;33.78;;;;;;;-1.92;100.00;102850.19;5031890;28;20489;-81
2024/01/20 08:55:59;;;;;;;47.72;34.15;;;;;;;-1.87;100.00;102851.97;5027051;28;20498;-81
2024/01/20 08:58:25;;;;;;;46.10;33.60;;;;;;;-1.87;100.00;102851.97;5048895;28;20033;-81
2024/01/20 09:00:50;;;;;;;47.28;32.65;;;;;;;-1.83;100.00;102859.75;5049779;28;20393;-81
2024/01/20 09:03:16;;;;;;;42.85;30.88;;;;;;;-1.81;100.00;102857.16;5041419;28;20111;-81
2024/01/20 09:05:42;;;;;;;39.30;29.67;;;;;;;-1.82;100.00;102858.03;5052737;28;20336;-81
2024/01/20 09:08:09;;;;;;;27.08;10.10;;;;;;;-1.73;100.00;102858.09;5039240;28;20334;-81
2024/01/20 09:10:36;;;;;;;22.92;8.38;;;;;;;-1.73;100.00;102860.69;5031131;28;20028;-81
2024/01/20 09:13:02;;;;;;;25.63;10.00;;;;;;;-1.72;100.00;102867.56;5031200;28;20657;-81
2024/01/20 09:15:27;;;;;;;42.63;31.77;;;;;;;-1.79;100.00;102865.78;5048688;28;20098;-81
2024/01/20 09:17:53;;;;;;;43.05;31.42;;;;;;;-1.77;100.00;102858.94;5050382;28;20091;-81
2024/01/20 09:20:19;;;;;;;40.25;30.35;;;;;;;-1.77;100.00;102861.50;5032111;28;20025;-81
2024/01/20 09:22:45;;;;;;;42.33;30.60;;;;;;;-1.81;100.00;102872.66;5049962;28;20035;-81
2024/01/20 09:25:10;;;;;;;40.30;30.92;;;;;;;-1.79;100.00;102871.81;5027984;28;20053;-81
2024/01/20 09:27:36;;;;;;;45.15;31.67;;;;;;;-1.78;100.00;102883.00;5029575;28;20033;-81
2024/01/20 09:30:01;;;;;;;42.35;30.92;;;;;;;-1.82;100.00;102879.53;5050062;28;20028;-81
2024/01/20 09:32:28;;;;;;;44.97;31.80;;;;;;;-1.83;100.00;102870.06;5032223;28;20017;-81
2024/01/20 09:34:53;;;;;;;28.70;10.82;;;;;;;-1.74;100.00;102871.84;5049596;28;20550;-81
2024/01/20 09:37:18;;;;;;;43.47;32.03;;;;;;;-1.80;100.00;102880.41;5051211;28;20059;-81
2024/01/20 09:39:44;;;;;;;42.45;31.20;;;;;;;-1.84;100.00;102867.47;5032832;28;20472;-81
2024/01/20 09:42:10;;;;;;;42.13;32.17;;;;;;;-1.83;100.00;102874.34;5049484;28;20046;-81
2024/01/20 09:44:36;;;;;;;42.75;32.08;;;;;;;-1.79;100.00;102881.28;5032757;28;20548;-81
2024/01/20 09:47:01;;;;;;;43.55;31.25;;;;;;;-1.81;100.00;102882.97;5049707;28;20036;-81
2024/01/20 09:49:26;;;;;;;38.03;29.60;;;;;;;-1.80;100.00;102884.69;5048459;28;20057;-81
2024/01/20 09:51:52;;;;;;;41.53;30.05;;;;;;;-1.80;100.00;102889.84;5049455;28;20107;-81
2024/01/20 09:54:19;;;;;;;40.75;30.77;;;;;;;-1.80;100.00;102893.31;5061530;28;20085;-81
2024/01/20 09:56:45;;;;;;;42.60;30.90;;;;;;;-1.77;100.00;102895.03;5069982;28;20025;-81
2024/01/20 09:59:13;;;;;;;44.70;31.48;;;;;;;-1.76;100.00;102896.78;5069907;28;20023;-81
2024/01/20 10:01:40;;;;;;;44.60;31.92;;;;;;;-1.72;100.00;102894.25;5049039;28;20035;-80
2024/01/20 10:04:09;;;;;;;42.58;31.38;;;;;;;-1.64;100.00;102907.22;5031154;28;20060;-81
2024/01/20 10:06:34;;;;;;;45.75;32.70;;;;;;;-1.63;100.00;102896.91;5050213;28;20075;-81
2024/01/20 10:08:59;;;;;;;47.03;32.97;;;;;;;-1.59;100.00;102900.41;5027260;28;20033;-80
2024/01/20 10:11:26;;;;;;;46.85;32.30;;;;;;;-1.58;100.00;102899.56;5050520;28;20473;-81
2024/01/20 10:13:52;;;;;;;43.13;30.90;;;;;;;-1.59;100.00;102900.41;5048191;28;20378;-81
2024/01/20 10:16:20;;;;;;;40.67;31.17;;;;;;;-1.59;100.00;102903.00;5049664;28;20548;-80
2024/01/20 10:18:45;;;;;;;39.85;29.73;;;;;;;-1.58;100.00;102902.13;5032075;28;20031;-81
2024/01/20 10:21:11;;;;;;;40.97;29.55;;;;;;;-1.52;100.00;102907.34;5048021;28;20133;-81
2024/01/20 10:23:39;;;;;;;28.20;10.45;;;;;;;-1.47;100.00;102909.97;5047989;28;20076;-81
2024/01/20 10:26:06;;;;;;;23.73;9.57;;;;;;;-1.44;100.00;102904.81;5031195;28;20021;-80
2024/01/20 10:28:33;;;;;;;39.75;28.58;;;;;;;-1.50;100.00;102900.47;5050593;28;20070;-80
2024/01/20 10:31:08;;;;;;;37.63;27.40;;;;;;;-1.47;100.00;102892.75;5048554;28;20049;-81
2024/01/20 10:33:34;;;;;;;38.05;27.80;;;;;;;-1.46;100.00;102891.91;5056028;28;20056;-80
2024/01/20 10:35:59;;;;;;;37.70;27.65;;;;;;;-1.36;100.00;102885.97;5052879;28;20504;-80
2024/01/20 10:38:28;;;;;;;36.22;27.45;;;;;;;-1.34;100.00;102888.56;5036563;28;20686;-80
2024/01/20 10:40:55;;;;;;;35.80;26.65;;;;;;;-1.34;100.00;102878.22;5055643;28;20028;-80
2024/01/20 10:43:22;;;;;;;36.88;25.80;;;;;;;-1.27;100.00;102887.75;5056620;28;20028;-80
2024/01/20 10:46:00;;;;;;;36.22;27.05;;;;;;;-1.20;100.00;102884.38;5052922;28;20033;-80
2024/01/20 10:48:27;;;;;;;38.22;26.75;;;;;;;-1.19;100.00;102885.25;5055223;28;20074;-78
2024/01/20 10:50:57;;;;;;;34.15;25.30;;;;;;;-1.16;100.00;102890.44;5052781;28;20404;-79
2024/01/20 10:53:25;;;;;;;33.55;25.17;;;;;;;-1.15;100.00;102884.41;5056349;28;20104;-79
2024/01/20 10:55:51;;;;;;;33.92;24.80;;;;;;;-1.22;100.00;102886.06;5056139;28;20021;-79